createdAt,value
2022-11-09T00:00:15.440Z,53039.03
2022-11-09T00:01:17.792Z,53061.08
2022-11-09T00:02:20.028Z,53102.16
2022-11-09T00:03:22.487Z,53097.15
2022-11-09T00:04:25.084Z,53141.24
2022-11-09T00:05:27.329Z,53158.28
2022-11-09T00:06:29.687Z,53082.12
2022-11-09T00:07:31.955Z,53152.27
2022-11-09T00:08:34.183Z,53176.32
2022-11-09T00:09:36.622Z,53160.28
2022-11-09T00:10:42.207Z,53225.42
2022-11-09T00:11:44.417Z,53167.30
2022-11-09T00:12:46.609Z,53188.34
2022-11-09T00:13:48.846Z,53216.40
2022-11-09T00:14:51.043Z,53270.51
2022-11-09T00:15:53.321Z,53268.51
2022-11-09T00:16:55.562Z,53242.45
2022-11-09T00:17:57.852Z,53089.14
2022-11-09T00:19:00.091Z,53060.07
2022-11-09T00:20:02.569Z,53065.09
2022-11-09T00:21:05.250Z,53050.05
2022-11-09T00:22:07.723Z,53052.06
2022-11-09T00:23:10.129Z,53145.25
2022-11-09T00:24:12.340Z,53074.11
2022-11-09T00:25:15.116Z,53086.13
2022-11-09T00:26:17.350Z,53057.07
2022-11-09T00:27:19.549Z,53011.98
2022-11-09T00:28:22.004Z,53015.98
2022-11-09T00:29:24.241Z,52995.95
2022-11-09T00:30:26.597Z,53000.95
2022-11-09T00:31:29.067Z,53080.12
2022-11-09T00:32:31.529Z,53092.14
2022-11-09T00:33:33.987Z,53115.19
2022-11-09T00:34:36.461Z,53191.35
2022-11-09T00:35:39.126Z,53102.16
2022-11-09T00:36:41.587Z,53067.09
2022-11-09T00:37:43.912Z,52977.91
2022-11-09T00:38:46.491Z,52910.77
2022-11-09T00:39:48.736Z,52928.81
2022-11-09T00:40:51.071Z,52978.91
2022-11-09T00:41:53.433Z,53083.13
2022-11-09T00:42:55.650Z,53012.98
2022-11-09T00:43:57.972Z,53026.01
2022-11-09T00:45:00.313Z,53000.95
2022-11-09T00:46:02.610Z,53032.02
2022-11-09T00:47:05.326Z,53019.99
2022-11-09T00:48:07.788Z,52996.95
2022-11-09T00:49:10.307Z,52952.86
2022-11-09T00:50:13.056Z,52930.81
2022-11-09T00:51:15.552Z,53022.00
2022-11-09T00:52:18.004Z,52997.95
2022-11-09T00:53:21.217Z,52935.82
2022-11-09T00:54:23.932Z,52971.89
2022-11-09T00:55:26.208Z,52970.89
2022-11-09T00:56:28.666Z,52863.68
2022-11-09T00:57:31.097Z,52958.87
2022-11-09T00:58:33.445Z,52942.84
2022-11-09T00:59:35.900Z,52900.75
2022-11-09T01:00:38.217Z,53008.97
2022-11-09T01:01:40.880Z,53024.00
2022-11-09T01:02:43.330Z,52998.95
2022-11-09T01:03:45.788Z,52959.87
2022-11-09T01:04:48.055Z,52913.78
2022-11-09T01:05:50.418Z,52939.83
2022-11-09T01:06:52.759Z,53024.00
2022-11-09T01:07:55.087Z,52975.91
2022-11-09T01:08:57.384Z,52925.80
2022-11-09T01:09:59.612Z,52915.78
2022-11-09T01:11:01.810Z,52937.83
2022-11-09T01:12:04.254Z,52928.81
2022-11-09T01:13:06.527Z,52959.87
2022-11-09T01:14:08.983Z,53004.96
2022-11-09T01:15:11.427Z,52971.89
2022-11-09T01:16:13.918Z,52953.86
2022-11-09T01:17:16.558Z,52921.79
2022-11-09T01:18:19.117Z,52933.82
2022-11-09T01:19:21.334Z,52917.79
2022-11-09T01:20:23.598Z,52928.81
2022-11-09T01:21:26.043Z,52941.84
2022-11-09T01:22:28.578Z,52952.86
2022-11-09T01:23:31.127Z,52912.78
2022-11-09T01:24:33.636Z,52854.66
2022-11-09T01:25:36.151Z,52852.66
2022-11-09T01:26:38.390Z,52843.64
2022-11-09T01:27:40.855Z,52891.73
2022-11-09T01:28:43.376Z,52986.93
2022-11-09T01:29:46.031Z,52967.89
2022-11-09T01:30:48.608Z,52979.91
2022-11-09T01:31:51.078Z,53055.07
2022-11-09T01:32:53.472Z,52993.94
2022-11-09T01:33:55.752Z,52955.86
2022-11-09T01:34:58.107Z,52971.89
2022-11-09T01:36:00.412Z,53007.97
2022-11-09T01:37:02.612Z,52990.93
2022-11-09T01:38:05.072Z,52949.85
2022-11-09T01:39:07.547Z,52939.83
2022-11-09T01:40:09.755Z,52971.89
2022-11-09T01:41:11.973Z,53009.97
2022-11-09T01:42:14.685Z,52960.88
2022-11-09T01:43:17.801Z,52960.88
2022-11-09T01:44:20.303Z,52972.90
2022-11-09T01:45:22.584Z,52936.82
2022-11-09T01:46:24.943Z,53013.98
2022-11-09T01:47:27.205Z,52969.89
2022-11-09T01:48:29.447Z,52965.88
2022-11-09T01:49:31.745Z,52961.87
2022-11-09T01:50:33.983Z,52965.88
2022-11-09T01:51:36.250Z,52973.90
2022-11-09T01:52:38.526Z,52991.94
2022-11-09T01:53:40.735Z,52976.91
2022-11-09T01:54:42.934Z,52979.91
2022-11-09T01:55:45.168Z,52935.82
2022-11-09T01:56:47.692Z,52965.88
2022-11-09T01:57:49.894Z,52911.77
2022-11-09T01:58:52.362Z,52979.91
2022-11-09T01:59:54.591Z,52973.90
2022-11-09T02:00:57.012Z,52949.85
2022-11-09T02:01:59.395Z,52926.80
2022-11-09T02:03:02.012Z,52917.79
2022-11-09T02:04:04.465Z,52980.91
2022-11-09T02:05:06.704Z,52976.91
2022-11-09T02:06:08.909Z,52964.88
2022-11-09T02:07:11.237Z,52941.84
2022-11-09T02:08:13.814Z,52920.79
2022-11-09T02:09:16.329Z,52916.79
2022-11-09T02:10:18.572Z,53001.96
2022-11-09T02:11:21.176Z,52970.89
2022-11-09T02:12:23.864Z,52963.88
2022-11-09T02:13:26.530Z,52939.83
2022-11-09T02:14:28.999Z,52972.90
2022-11-09T02:15:31.443Z,53033.02
2022-11-09T02:16:33.909Z,53013.98
2022-11-09T02:17:37.548Z,52989.93
2022-11-09T02:18:40.017Z,52957.87
2022-11-09T02:19:43.071Z,52937.83
2022-11-09T02:20:45.684Z,52963.88
2022-11-09T02:21:47.940Z,52972.90
2022-11-09T02:22:50.268Z,52910.77
2022-11-09T02:23:52.751Z,52969.89
2022-11-09T02:24:56.543Z,52907.77
2022-11-09T02:25:58.874Z,52953.86
2022-11-09T02:27:01.265Z,52964.88
2022-11-09T02:28:03.522Z,52947.85
2022-11-09T02:29:06.042Z,52957.87
2022-11-09T02:30:08.754Z,52923.80
2022-11-09T02:31:11.002Z,52911.77
2022-11-09T02:32:13.241Z,52993.94
2022-11-09T02:33:15.631Z,53045.04
2022-11-09T02:34:18.035Z,53060.07
2022-11-09T02:35:20.363Z,53016.99
2022-11-09T02:36:22.588Z,53057.07
2022-11-09T02:37:24.810Z,53026.01
2022-11-09T02:38:27.024Z,53045.04
2022-11-09T02:39:29.263Z,53024.00
2022-11-09T02:40:31.784Z,53001.96
2022-11-09T02:41:34.045Z,53015.98
2022-11-09T02:42:36.326Z,52987.93
2022-11-09T02:43:38.606Z,53036.03
2022-11-09T02:44:41.046Z,53032.02
2022-11-09T02:45:43.333Z,52976.91
2022-11-09T02:46:45.521Z,52920.79
2022-11-09T02:47:47.721Z,52882.71
2022-11-09T02:48:50.229Z,52913.78
2022-11-09T02:49:52.643Z,52972.90
2022-11-09T02:50:54.985Z,52995.95
2022-11-09T02:51:57.286Z,53008.97
2022-11-09T02:52:59.502Z,53024.00
2022-11-09T02:54:01.791Z,53044.04
2022-11-09T02:55:04.184Z,53024.00
2022-11-09T02:56:07.810Z,52992.94
2022-11-09T02:57:10.316Z,53045.04
2022-11-09T02:58:12.612Z,53078.11
2022-11-09T02:59:15.025Z,53019.99
2022-11-09T03:00:17.484Z,52984.92
2022-11-09T03:01:20.168Z,53012.98
2022-11-09T03:02:22.847Z,52983.92
2022-11-09T03:03:25.410Z,52916.79
2022-11-09T03:04:27.900Z,52943.84
2022-11-09T03:05:30.533Z,52957.87
2022-11-09T03:06:32.938Z,52953.86
2022-11-09T03:07:35.196Z,53058.07
2022-11-09T03:08:37.693Z,52976.91
2022-11-09T03:09:40.018Z,52987.93
2022-11-09T03:10:42.486Z,52972.90
2022-11-09T03:11:44.988Z,52981.92
2022-11-09T03:12:47.267Z,52983.92
2022-11-09T03:13:49.533Z,52965.88
2022-11-09T03:14:51.786Z,52947.85
2022-11-09T03:15:54.051Z,53005.96
2022-11-09T03:16:56.288Z,52973.90
2022-11-09T03:17:58.553Z,52985.92
2022-11-09T03:19:00.767Z,52954.86
2022-11-09T03:20:03.030Z,52956.86
2022-11-09T03:21:05.310Z,52965.88
2022-11-09T03:22:07.803Z,52968.89
2022-11-09T03:23:10.073Z,52961.87
2022-11-09T03:24:12.650Z,52977.91
2022-11-09T03:25:15.164Z,52989.93
2022-11-09T03:26:17.677Z,52989.93
2022-11-09T03:27:20.582Z,52985.92
2022-11-09T03:28:22.835Z,52961.87
2022-11-09T03:29:25.110Z,53005.96
2022-11-09T03:30:27.709Z,52986.93
2022-11-09T03:31:30.194Z,52985.92
2022-11-09T03:32:32.877Z,52979.91
2022-11-09T03:33:35.408Z,52966.89
2022-11-09T03:34:37.649Z,53009.97
2022-11-09T03:35:40.054Z,53012.98
2022-11-09T03:36:42.494Z,52988.93
2022-11-09T03:37:44.977Z,53010.98
2022-11-09T03:38:47.546Z,53025.00
2022-11-09T03:39:50.093Z,53005.96
2022-11-09T03:40:52.600Z,53024.00
2022-11-09T03:41:54.851Z,53028.01
2022-11-09T03:42:57.246Z,53022.00
2022-11-09T03:43:59.516Z,53007.97
2022-11-09T03:45:01.757Z,52973.90
2022-11-09T03:46:03.997Z,52980.91
2022-11-09T03:47:06.279Z,52983.92
2022-11-09T03:48:09.029Z,52969.89
2022-11-09T03:49:11.288Z,52943.84
2022-11-09T03:50:13.554Z,52963.88
2022-11-09T03:51:15.806Z,53013.98
2022-11-09T03:52:18.176Z,52962.88
2022-11-09T03:53:21.067Z,52956.86
2022-11-09T03:54:23.526Z,52969.89
2022-11-09T03:55:25.735Z,52955.86
2022-11-09T03:56:27.978Z,52969.89
2022-11-09T03:57:30.265Z,52961.87
2022-11-09T03:58:32.559Z,52917.79
2022-11-09T03:59:34.915Z,52949.85
2022-11-09T04:00:37.227Z,52941.84
2022-11-09T04:01:39.506Z,52911.77
2022-11-09T04:02:41.891Z,52960.88
2022-11-09T04:03:44.275Z,52924.80
2022-11-09T04:04:46.559Z,52914.78
2022-11-09T04:05:48.852Z,52925.80
2022-11-09T04:06:51.141Z,52921.79
2022-11-09T04:07:53.329Z,52912.78
2022-11-09T04:08:55.723Z,52931.82
2022-11-09T04:10:06.924Z,52925.80
2022-11-09T04:11:09.142Z,52908.77
2022-11-09T04:12:11.620Z,52920.79
2022-11-09T04:13:13.909Z,52915.78
2022-11-09T04:14:19.530Z,52918.79
2022-11-09T04:15:21.754Z,52934.82
2022-11-09T04:16:24.031Z,52928.81
2022-11-09T04:17:26.287Z,52940.83
2022-11-09T04:18:28.494Z,52913.78
2022-11-09T04:19:30.764Z,52910.77
2022-11-09T04:20:33.138Z,52920.79
2022-11-09T04:21:35.373Z,52921.79
2022-11-09T04:22:37.668Z,52931.82
2022-11-09T04:23:39.971Z,52898.75
2022-11-09T04:24:42.575Z,52924.80
2022-11-09T04:25:52.491Z,52948.85
2022-11-09T04:26:54.722Z,52935.82
2022-11-09T04:27:57.007Z,52943.84
2022-11-09T04:28:59.376Z,52900.75
2022-11-09T04:30:02.046Z,52941.84
2022-11-09T04:31:04.356Z,52941.84
2022-11-09T04:32:06.577Z,52966.89
2022-11-09T04:33:08.864Z,52936.82
2022-11-09T04:34:11.520Z,52933.82
2022-11-09T04:35:14.114Z,52963.88
2022-11-09T04:36:16.609Z,52943.84
2022-11-09T04:37:19.190Z,52940.83
2022-11-09T04:38:21.510Z,52969.89
2022-11-09T04:39:23.987Z,52951.86
2022-11-09T04:40:26.780Z,52955.86
2022-11-09T04:41:29.919Z,52984.92
2022-11-09T04:42:49.847Z,53019.99
2022-11-09T04:43:52.056Z,52987.93
2022-11-09T04:44:54.358Z,53042.04
2022-11-09T04:45:56.666Z,53021.00
2022-11-09T04:47:00.181Z,52984.92
2022-11-09T04:48:02.585Z,52990.93
2022-11-09T04:49:08.034Z,53011.98
2022-11-09T04:50:12.323Z,53014.98
2022-11-09T04:51:14.876Z,53037.03
2022-11-09T04:52:17.159Z,53036.03
2022-11-09T04:53:23.439Z,53001.96
2022-11-09T04:54:42.645Z,52996.95
2022-11-09T04:55:51.123Z,53042.04
2022-11-09T04:56:53.906Z,53034.02
2022-11-09T05:00:38.787Z,53021.00
2022-11-09T05:01:41.084Z,53007.97
2022-11-09T05:02:46.837Z,53000.95
2022-11-09T05:03:49.305Z,52986.93
2022-11-09T05:04:51.643Z,53023.00
2022-11-09T05:05:54.042Z,53022.00
2022-11-09T05:06:56.350Z,52957.87
2022-11-09T05:07:58.828Z,53002.96
2022-11-09T05:09:01.091Z,52994.94
2022-11-09T05:10:08.268Z,52993.94
2022-11-09T05:11:20.276Z,53048.05
2022-11-09T05:12:45.613Z,52984.92
2022-11-09T05:16:37.567Z,52999.95
2022-11-09T05:17:39.907Z,52991.94
2022-11-09T05:20:07.523Z,53053.06
2022-11-09T05:22:30.617Z,53005.96
2022-11-09T05:24:53.171Z,53006.97
2022-11-09T05:25:55.462Z,53025.00
2022-11-09T05:27:03.199Z,53022.00
2022-11-09T05:28:06.822Z,53042.04
2022-11-09T05:30:29.921Z,53050.05
2022-11-09T05:32:56.679Z,53052.06
2022-11-09T05:33:59.191Z,53052.06
2022-11-09T05:35:11.141Z,53044.04
2022-11-09T05:41:17.933Z,53077.11
2022-11-09T05:47:47.321Z,53121.20
2022-11-09T05:50:14.915Z,53115.19
2022-11-09T05:51:19.583Z,53113.18
2022-11-09T05:53:46.396Z,53150.26
2022-11-09T05:54:46.814Z,53180.32
2022-11-09T05:55:50.448Z,53217.40
2022-11-09T05:56:55.815Z,53166.29
2022-11-09T05:59:18.457Z,53178.32
2022-11-09T06:03:01.489Z,53185.34
2022-11-09T06:04:08.218Z,53157.28
2022-11-09T06:05:13.343Z,53140.24
2022-11-09T06:07:37.643Z,53146.25
2022-11-09T06:10:01.632Z,53200.37
2022-11-09T06:11:03.937Z,53222.41
2022-11-09T06:13:28.811Z,53202.37
2022-11-09T06:15:51.385Z,53156.27
2022-11-09T06:16:54.071Z,53189.34
2022-11-09T06:17:57.660Z,53186.34
2022-11-09T06:19:10.557Z,53181.32
2022-11-09T06:21:34.634Z,53129.22
2022-11-09T06:23:58.601Z,53100.16
2022-11-09T06:27:44.111Z,53099.16
2022-11-09T06:29:03.647Z,53087.13
2022-11-09T06:30:06.088Z,53082.12
2022-11-09T06:31:08.453Z,53069.09
2022-11-09T06:32:19.588Z,53082.12
2022-11-09T06:33:25.422Z,53094.14
2022-11-09T06:34:27.894Z,53091.14
2022-11-09T06:35:30.215Z,53114.19
2022-11-09T06:39:17.051Z,53082.12
2022-11-09T06:44:39.711Z,53103.16
2022-11-09T06:45:56.681Z,53109.18
2022-11-09T06:49:51.495Z,53106.17
2022-11-09T06:50:53.933Z,53102.16
2022-11-09T06:52:01.166Z,53094.14
2022-11-09T06:53:03.573Z,53143.25
2022-11-09T06:55:26.382Z,53156.27
2022-11-09T06:56:44.820Z,53108.17
2022-11-09T06:57:47.294Z,53106.17
2022-11-09T07:00:10.057Z,53080.12
2022-11-09T07:01:12.753Z,53100.16
2022-11-09T07:02:15.324Z,53134.23
2022-11-09T07:03:18.349Z,53121.20
2022-11-09T07:04:21.017Z,53121.20
2022-11-09T07:06:49.487Z,53141.24
2022-11-09T07:10:35.487Z,53114.19
2022-11-09T07:11:37.784Z,53101.16
2022-11-09T07:12:43.429Z,53134.23
2022-11-09T07:16:28.451Z,53127.21
2022-11-09T07:17:30.763Z,53107.17
2022-11-09T07:18:42.906Z,53142.25
2022-11-09T07:19:54.741Z,53104.16
2022-11-09T07:20:56.975Z,53106.17
2022-11-09T07:22:12.974Z,53118.20
2022-11-09T07:23:15.686Z,53123.20
2022-11-09T07:24:23.047Z,53134.23
2022-11-09T07:25:25.432Z,53113.18
2022-11-09T07:27:49.064Z,53134.23
2022-11-09T07:29:00.331Z,53116.19
2022-11-09T07:33:49.935Z,53186.34
2022-11-09T07:38:59.607Z,53178.32
2022-11-09T07:40:10.856Z,53162.29
2022-11-09T07:41:13.775Z,53178.32
2022-11-09T07:42:18.034Z,53202.37
2022-11-09T07:43:26.516Z,53199.36
2022-11-09T07:44:29.137Z,53200.37
2022-11-09T07:45:31.502Z,53216.40
2022-11-09T07:46:34.146Z,53213.39
2022-11-09T07:47:38.250Z,53229.43
2022-11-09T07:51:37.173Z,53291.56
2022-11-09T07:52:46.627Z,53300.57
2022-11-09T07:53:52.773Z,53338.66
2022-11-09T07:55:04.656Z,53315.61
2022-11-09T07:57:30.856Z,53358.70
2022-11-09T07:58:38.689Z,53382.75
2022-11-09T08:02:25.213Z,53420.83
2022-11-09T08:07:47.030Z,53428.85
2022-11-09T08:14:15.891Z,53476.95
2022-11-09T08:51:34.926Z,53769.59
2022-11-09T08:53:57.909Z,53807.68
2022-11-09T08:59:03.429Z,53867.81
2022-11-09T09:01:33.518Z,53903.90
2022-11-09T09:03:57.862Z,53972.05
2022-11-09T09:18:28.871Z,54925.34
2022-11-09T09:19:31.958Z,55026.59
2022-11-09T09:20:44.338Z,55211.07
2022-11-09T09:23:16.098Z,55705.38
2022-11-09T09:24:24.194Z,55880.86
2022-11-09T09:25:41.339Z,55922.98
2022-11-09T09:26:48.398Z,55969.11
2022-11-09T09:27:59.884Z,56062.37
2022-11-09T09:29:16.730Z,56071.39
2022-11-09T09:30:19.959Z,56174.68
2022-11-09T09:31:27.359Z,56430.42
2022-11-09T09:32:31.103Z,56500.62
2022-11-09T09:33:34.229Z,56508.64
2022-11-09T09:34:39.129Z,56551.77
2022-11-09T09:35:49.889Z,56636.02
2022-11-09T09:38:13.844Z,56737.32
2022-11-09T09:39:17.484Z,56872.73
2022-11-09T09:40:20.311Z,56955.98
2022-11-09T09:41:24.326Z,57048.26
2022-11-09T09:42:33.353Z,57202.73
2022-11-09T09:43:39.820Z,57266.93
2022-11-09T09:44:43.210Z,57345.18
2022-11-09T09:45:47.077Z,57337.15
2022-11-09T09:46:59.264Z,57343.17
2022-11-09T09:49:22.642Z,57357.21
2022-11-09T09:50:25.991Z,57340.16
2022-11-09T09:51:28.680Z,57263.92
2022-11-09T09:55:08.349Z,57184.68
2022-11-09T09:56:15.520Z,57152.58
2022-11-09T09:57:26.358Z,57111.45
2022-11-09T09:58:32.543Z,57080.36
2022-11-09T09:59:35.922Z,57087.38
2022-11-09T10:00:44.827Z,57073.34
2022-11-09T10:01:48.423Z,57085.37
2022-11-09T10:02:53.142Z,57060.29
2022-11-09T10:03:56.746Z,57019.17
2022-11-09T10:05:08.531Z,57033.21
2022-11-09T10:06:19.723Z,57067.32
2022-11-09T10:07:22.863Z,57089.38
2022-11-09T10:08:28.954Z,57083.37
2022-11-09T10:09:33.553Z,57062.30
2022-11-09T10:10:37.746Z,57036.22
2022-11-09T10:11:43.660Z,57059.29
2022-11-09T10:12:46.883Z,56980.05
2022-11-09T10:13:50.693Z,56962.00
2022-11-09T10:16:20.179Z,56895.79
2022-11-09T10:17:38.316Z,56953.97
2022-11-09T10:18:44.866Z,56905.82
2022-11-09T10:19:58.899Z,56879.75
2022-11-09T10:25:18.964Z,56716.26
2022-11-09T10:26:06.090Z,56684.16
2022-11-09T10:27:05.290Z,56632.01
2022-11-09T10:28:16.885Z,56558.79
2022-11-09T10:29:31.239Z,56536.73
2022-11-09T10:30:34.414Z,56506.64
2022-11-09T10:31:38.002Z,56418.38
2022-11-09T10:32:44.265Z,56361.22
2022-11-09T10:33:54.927Z,56400.33
2022-11-09T10:35:00.335Z,56365.23
2022-11-09T10:36:13.331Z,56354.20
2022-11-09T10:37:20.558Z,56344.17
2022-11-09T10:38:24.489Z,56388.30
2022-11-09T10:39:29.930Z,56440.45
2022-11-09T10:41:54.051Z,56465.52
2022-11-09T10:42:57.242Z,56472.54
2022-11-09T10:45:21.370Z,56512.66
2022-11-09T10:46:29.711Z,56523.69
2022-11-09T10:47:32.893Z,56540.74
2022-11-09T10:50:01.587Z,56606.93
2022-11-09T10:51:07.430Z,56677.14
2022-11-09T10:52:10.400Z,56684.16
2022-11-09T10:54:36.116Z,56817.56
2022-11-09T10:55:41.150Z,56953.97
2022-11-09T10:57:05.453Z,56975.04
2022-11-09T10:58:02.952Z,56994.09
2022-11-09T10:59:11.141Z,57087.38
2022-11-09T11:03:10.211Z,57553.84
2022-11-09T11:04:14.677Z,57628.07
2022-11-09T11:05:18.180Z,57690.27
2022-11-09T11:06:21.863Z,57725.38
2022-11-09T11:07:25.149Z,57746.45
2022-11-09T11:08:28.709Z,57790.59
2022-11-09T11:09:32.332Z,57797.62
2022-11-09T11:10:35.417Z,57805.64
2022-11-09T11:11:38.618Z,57848.79
2022-11-09T11:12:42.196Z,57942.09
2022-11-09T11:13:45.673Z,57989.24
2022-11-09T11:14:48.956Z,58045.43
2022-11-09T11:15:55.681Z,58094.59
2022-11-09T11:16:59.016Z,58257.13
2022-11-09T11:18:02.496Z,58299.28
2022-11-09T11:19:05.269Z,58447.78
2022-11-09T11:20:10.561Z,58545.11
2022-11-09T11:21:26.249Z,58606.32
2022-11-09T11:22:29.050Z,58707.67
2022-11-09T11:23:32.645Z,58864.22
2022-11-09T11:24:35.730Z,58883.29
2022-11-09T11:25:41.069Z,58933.46
2022-11-09T11:26:44.158Z,58980.63
2022-11-09T11:27:51.973Z,58985.65
2022-11-09T11:28:59.308Z,59091.02
2022-11-09T11:31:23.282Z,59234.54
2022-11-09T11:32:29.570Z,59350.96
2022-11-09T11:33:32.832Z,59404.15
2022-11-09T11:34:58.441Z,59429.24
2022-11-09T11:35:41.436Z,59504.52
2022-11-09T11:36:44.402Z,59493.48
2022-11-09T11:37:48.127Z,59496.49
2022-11-09T11:38:54.781Z,59546.67
2022-11-09T11:39:57.648Z,59548.68
2022-11-09T11:41:00.624Z,59592.84
2022-11-09T11:42:03.706Z,59657.08
2022-11-09T11:43:07.109Z,59673.14
2022-11-09T11:44:09.967Z,59712.29
2022-11-09T11:45:38.888Z,59714.29
2022-11-09T11:46:17.969Z,59775.52
2022-11-09T11:47:21.367Z,59809.65
2022-11-09T11:48:25.350Z,59864.86
2022-11-09T11:49:28.842Z,59896.98
2022-11-09T11:50:32.028Z,59909.02
2022-11-09T11:51:34.992Z,59956.20
2022-11-09T11:52:41.292Z,59999.37
2022-11-09T11:53:48.212Z,60014.42
2022-11-09T11:54:51.617Z,60058.59
2022-11-09T11:55:54.993Z,60078.67
2022-11-09T11:56:59.113Z,60077.66
2022-11-09T11:58:02.587Z,60106.78
2022-11-09T11:59:05.787Z,60138.90
2022-11-09T12:00:08.852Z,60105.77
2022-11-09T12:01:15.511Z,60169.02
2022-11-09T12:02:18.696Z,60163.99
2022-11-09T12:03:22.444Z,60210.17
2022-11-09T12:04:32.088Z,60231.25
2022-11-09T12:05:33.470Z,60260.37
2022-11-09T12:06:38.557Z,60274.42
2022-11-09T12:07:41.680Z,60298.51
2022-11-09T12:08:45.062Z,60295.50
2022-11-09T12:09:48.764Z,60310.56
2022-11-09T12:10:51.863Z,60349.71
2022-11-09T12:11:54.715Z,60402.92
2022-11-09T12:12:57.686Z,60424.00
2022-11-09T12:14:01.585Z,60418.98
2022-11-09T12:15:04.733Z,60426.01
2022-11-09T12:16:08.146Z,60469.18
2022-11-09T12:17:11.333Z,60470.18
2022-11-09T12:18:14.321Z,60493.27
2022-11-09T12:19:20.456Z,60572.58
2022-11-09T12:20:22.920Z,60608.73
2022-11-09T12:21:26.524Z,60622.78
2022-11-09T12:22:29.596Z,60710.13
2022-11-09T12:23:33.091Z,60743.26
2022-11-09T12:24:37.080Z,60813.54
2022-11-09T12:25:40.163Z,60979.21
2022-11-09T12:26:42.941Z,61028.41
2022-11-09T12:27:46.216Z,61085.64
2022-11-09T12:28:49.195Z,61158.94
2022-11-09T12:29:52.581Z,61138.85
2022-11-09T12:30:55.870Z,61170.98
2022-11-09T12:31:58.993Z,61153.91
2022-11-09T12:33:02.326Z,61163.96
2022-11-09T12:34:05.418Z,61229.22
2022-11-09T12:35:08.697Z,61208.14
2022-11-09T12:36:11.406Z,61217.18
2022-11-09T12:37:14.560Z,61190.06
2022-11-09T12:38:17.423Z,61227.21
2022-11-09T12:39:20.738Z,61215.16
2022-11-09T12:40:24.715Z,61230.23
2022-11-09T12:41:27.992Z,61259.35
2022-11-09T12:42:31.386Z,61271.40
2022-11-09T12:43:34.877Z,61258.34
2022-11-09T12:44:38.159Z,61293.49
2022-11-09T12:45:41.330Z,61327.63
2022-11-09T12:46:46.033Z,61291.48
2022-11-09T12:47:50.742Z,61326.62
2022-11-09T12:48:53.438Z,61300.52
2022-11-09T12:49:56.218Z,61353.74
2022-11-09T12:50:59.296Z,61416.00
2022-11-09T12:52:02.783Z,61388.88
2022-11-09T12:53:05.973Z,61424.03
2022-11-09T12:54:09.554Z,61472.23
2022-11-09T12:55:12.425Z,61420.01
2022-11-09T12:56:15.512Z,61470.22
2022-11-09T12:57:18.596Z,61482.27
2022-11-09T12:58:22.085Z,61488.30
2022-11-09T12:59:25.461Z,61492.31
2022-11-09T13:00:28.447Z,61495.32
2022-11-09T13:01:31.669Z,61509.38
2022-11-09T13:02:34.599Z,61492.31
2022-11-09T13:03:37.693Z,61478.25
2022-11-09T13:04:40.454Z,61500.34
2022-11-09T13:05:46.450Z,61531.48
2022-11-09T13:06:49.670Z,61537.50
2022-11-09T13:07:52.792Z,61540.51
2022-11-09T13:08:55.976Z,61564.61
2022-11-09T13:09:59.124Z,61551.56
2022-11-09T13:11:02.006Z,61557.59
2022-11-09T13:12:05.291Z,61607.80
2022-11-09T13:13:08.052Z,61663.03
2022-11-09T13:14:11.031Z,61640.93
2022-11-09T13:15:13.904Z,61652.98
2022-11-09T13:16:17.926Z,61716.25
2022-11-09T13:17:21.517Z,61695.16
2022-11-09T13:18:24.695Z,61695.16
2022-11-09T13:19:27.761Z,61726.30
2022-11-09T13:20:53.542Z,61695.16
2022-11-09T13:21:35.349Z,61690.14
2022-11-09T13:22:38.762Z,61705.21
2022-11-09T13:23:59.836Z,61695.16
2022-11-09T13:24:45.928Z,61689.14
2022-11-09T13:25:48.901Z,61700.18
2022-11-09T13:26:52.190Z,61678.09
2022-11-09T13:27:55.571Z,61695.16
2022-11-09T13:28:58.442Z,61675.08
2022-11-09T13:30:01.627Z,61665.04
2022-11-09T13:31:04.927Z,61703.20
2022-11-09T13:32:07.797Z,61650.98
2022-11-09T13:33:11.085Z,61652.98
2022-11-09T13:34:14.169Z,61651.98
2022-11-09T13:35:17.333Z,61646.96
2022-11-09T13:36:20.408Z,61635.91
2022-11-09T13:37:24.013Z,61576.66
2022-11-09T13:38:26.576Z,61583.70
2022-11-09T13:39:31.196Z,61547.54
2022-11-09T13:40:34.571Z,61535.49
2022-11-09T13:41:37.346Z,61565.62
2022-11-09T13:42:40.117Z,61556.58
2022-11-09T13:43:43.211Z,61547.54
2022-11-09T13:44:48.250Z,61584.70
2022-11-09T13:45:50.907Z,61539.51
2022-11-09T13:46:54.395Z,61569.64
2022-11-09T13:47:57.472Z,61548.55
2022-11-09T13:49:00.439Z,61526.45
2022-11-09T13:50:03.325Z,61521.43
2022-11-09T13:51:06.593Z,61504.36
2022-11-09T13:52:09.886Z,61513.40
2022-11-09T13:53:12.870Z,61460.18
2022-11-09T13:54:16.246Z,61484.28
2022-11-09T13:55:19.219Z,61464.20
2022-11-09T13:56:27.018Z,61498.34
2022-11-09T13:57:26.814Z,61505.37
2022-11-09T13:58:30.002Z,61519.43
2022-11-09T13:59:32.870Z,61513.40
2022-11-09T14:00:36.167Z,61480.26
2022-11-09T14:01:38.970Z,61511.39
2022-11-09T14:02:42.316Z,61533.48
2022-11-09T14:03:45.803Z,61596.75
2022-11-09T14:04:50.216Z,61547.54
2022-11-09T14:05:53.313Z,61585.70
2022-11-09T14:06:56.423Z,61542.52
2022-11-09T14:07:59.383Z,61536.50
2022-11-09T14:09:02.134Z,61531.48
2022-11-09T14:10:04.890Z,61510.39
2022-11-09T14:11:07.571Z,61476.25
2022-11-09T14:12:10.341Z,61458.17
2022-11-09T14:13:13.321Z,61472.23
2022-11-09T14:14:16.181Z,61470.22
2022-11-09T14:15:18.861Z,61500.34
2022-11-09T14:16:21.837Z,61510.39
2022-11-09T14:17:24.816Z,61476.25
2022-11-09T14:18:27.794Z,61515.41
2022-11-09T14:19:32.405Z,61521.43
2022-11-09T14:20:35.007Z,61539.51
2022-11-09T14:21:38.154Z,61555.57
2022-11-09T14:22:41.344Z,61574.66
2022-11-09T14:23:48.218Z,61634.91
2022-11-09T14:24:51.183Z,61671.06
2022-11-09T14:25:54.885Z,61717.26
2022-11-09T14:27:01.137Z,61753.41
2022-11-09T14:28:04.107Z,61814.67
2022-11-09T14:29:09.566Z,61898.02
2022-11-09T14:30:12.737Z,61926.14
2022-11-09T14:31:18.472Z,61966.32
2022-11-09T14:32:24.937Z,62001.47
2022-11-09T14:33:28.115Z,62068.76
2022-11-09T14:34:31.193Z,62033.61
2022-11-09T14:35:33.970Z,62038.63
2022-11-09T14:36:36.766Z,62048.67
2022-11-09T14:37:44.343Z,62030.59
2022-11-09T14:38:48.055Z,62026.58
2022-11-09T14:39:51.501Z,62065.74
2022-11-09T14:40:55.196Z,62058.71
2022-11-09T14:42:04.730Z,62043.65
2022-11-09T14:43:08.643Z,62050.68
2022-11-09T14:44:11.396Z,62092.86
2022-11-09T14:45:14.427Z,62064.74
2022-11-09T14:46:17.663Z,62019.55
2022-11-09T14:47:20.527Z,62051.68
2022-11-09T14:48:24.715Z,62007.49
2022-11-09T14:49:34.588Z,62039.63
2022-11-09T14:50:40.765Z,62010.50
2022-11-09T14:51:46.712Z,62037.62
2022-11-09T14:52:57.312Z,62052.69
2022-11-09T14:54:00.250Z,62033.61
2022-11-09T14:55:06.282Z,62034.61
2022-11-09T14:56:09.652Z,61980.37
2022-11-09T14:57:12.456Z,61986.40
2022-11-09T14:58:19.721Z,61954.27
2022-11-09T14:59:22.668Z,61990.42
2022-11-09T15:00:25.352Z,61950.25
2022-11-09T15:01:27.993Z,61921.12
2022-11-09T15:02:33.851Z,61875.93
2022-11-09T15:03:38.013Z,61883.96
2022-11-09T15:04:49.690Z,61842.79
2022-11-09T15:05:58.716Z,61832.75
2022-11-09T15:07:07.578Z,61843.79
2022-11-09T15:08:10.191Z,61839.78
2022-11-09T15:09:12.500Z,61783.54
2022-11-09T15:10:14.773Z,61707.21
2022-11-09T15:11:19.940Z,61692.15
2022-11-09T15:14:06.075Z,61705.21
2022-11-09T15:15:08.376Z,61738.34
2022-11-09T15:16:19.658Z,61757.43